Lamar, Missouri
Current Conditions -  °F | °C
As of 9:55 PM on Sunday 21 Dec 2014 (Local Time) from KPTS Reporting Station
Overcast Overcast  
Wind Chill: 42°   Ceiling: 2300
Heat Index: 46°   Visibility: 10mi
Dew Point: 42°   Wind: 8mph
Humidity: 86%   Direction: 160°SSE
Pressure: 29.78"   Gusts: NA
Location:  37.5°N, 94.28°W
Report Text: KPTS 220355Z AUTO 16007KT 10SM OVC023 08/06 A2978 RMK AO2 T00770055
Loading
Personal Weather Stations






























Interactive Weather Map New forecast layout! Learn more

10-Day Weather Forecast

Advertisements
Track Severe Weather on mobile